sensor_id;sensor_type;location;lat;lon;timestamp;pressure;altitude;pressure_sealevel;temperature;humidity
6835;BME280;3455;42.150;24.734;2022-12-10T00:01:04;66682.47;;;10.89;88.44
6835;BME280;3455;42.150;24.734;2022-12-10T00:03:30;66707.41;;;10.94;88.86
6835;BME280;3455;42.150;24.734;2022-12-10T00:06:00;66725.94;;;11.10;87.50
6835;BME280;3455;42.150;24.734;2022-12-10T00:08:27;66683.38;;;10.81;88.22
6835;BME280;3455;42.150;24.734;2022-12-10T00:10:54;66726.53;;;10.93;87.79
6835;BME280;3455;42.150;24.734;2022-12-10T00:13:21;66690.50;;;11.03;87.91
6835;BME280;3455;42.150;24.734;2022-12-10T00:15:48;66694.63;;;11.18;86.27
6835;BME280;3455;42.150;24.734;2022-12-10T00:18:15;66671.50;;;10.62;89.40
6835;BME280;3455;42.150;24.734;2022-12-10T00:20:41;66657.88;;;10.23;91.51
6835;BME280;3455;42.150;24.734;2022-12-10T00:23:09;66644.44;;;10.42;91.21
6835;BME280;3455;42.150;24.734;2022-12-10T00:25:36;66664.47;;;10.80;89.48
6835;BME280;3455;42.150;24.734;2022-12-10T00:28:03;66692.25;;;11.05;88.39
6835;BME280;3455;42.150;24.734;2022-12-10T00:30:30;66674.38;;;10.82;89.36
6835;BME280;3455;42.150;24.734;2022-12-10T00:32:57;66671.19;;;10.88;89.44
6835;BME280;3455;42.150;24.734;2022-12-10T00:35:23;66621.31;;;10.69;90.06
6835;BME280;3455;42.150;24.734;2022-12-10T00:37:50;66675.16;;;10.81;89.21
6835;BME280;3455;42.150;24.734;2022-12-10T00:40:18;66671.03;;;10.66;90.68
6835;BME280;3455;42.150;24.734;2022-12-10T00:42:45;66674.53;;;10.51;91.27
6835;BME280;3455;42.150;24.734;2022-12-10T00:45:12;66677.00;;;10.58;91.02
6835;BME280;3455;42.150;24.734;2022-12-10T00:47:39;66657.66;;;10.79;89.75
6835;BME280;3455;42.150;24.734;2022-12-10T00:50:06;66664.25;;;10.82;89.78
6835;BME280;3455;42.150;24.734;2022-12-10T00:52:33;66706.50;;;11.02;88.50
6835;BME280;3455;42.150;24.734;2022-12-10T00:54:59;66682.03;;;10.94;89.34
6835;BME280;3455;42.150;24.734;2022-12-10T00:57:27;66670.34;;;10.61;90.22
6835;BME280;3455;42.150;24.734;2022-12-10T00:59:54;66691.19;;;10.61;91.28
6835;BME280;3455;42.150;24.734;2022-12-10T01:02:21;66689.44;;;10.60;91.07
6835;BME280;3455;42.150;24.734;2022-12-10T01:04:52;66650.34;;;10.70;90.55
6835;BME280;3455;42.150;24.734;2022-12-10T01:07:19;66670.63;;;10.70;91.00
6835;BME280;3455;42.150;24.734;2022-12-10T01:09:45;66689.88;;;10.91;89.78
6835;BME280;3455;42.150;24.734;2022-12-10T01:12:12;66673.22;;;10.81;89.89
6835;BME280;3455;42.150;24.734;2022-12-10T01:14:40;66655.84;;;10.66;91.34
6835;BME280;3455;42.150;24.734;2022-12-10T01:17:07;66687.94;;;10.74;90.72
6835;BME280;3455;42.150;24.734;2022-12-10T01:19:34;66688.00;;;10.85;90.22
6835;BME280;3455;42.150;24.734;2022-12-10T01:22:01;66703.69;;;11.10;88.82
6835;BME280;3455;42.150;24.734;2022-12-10T01:24:29;66682.94;;;10.85;89.53
6835;BME280;3455;42.150;24.734;2022-12-10T01:26:56;66634.88;;;10.61;90.52
6835;BME280;3455;42.150;24.734;2022-12-10T01:29:24;66682.13;;;10.69;91.13
6835;BME280;3455;42.150;24.734;2022-12-10T01:31:55;66675.38;;;10.97;89.83
6835;BME280;3455;42.150;24.734;2022-12-10T01:34:23;66697.09;;;11.07;89.52
6835;BME280;3455;42.150;24.734;2022-12-10T01:36:52;66694.34;;;11.09;88.97
6835;BME280;3455;42.150;24.734;2022-12-10T01:39:20;66678.56;;;10.90;89.60
6835;BME280;3455;42.150;24.734;2022-12-10T01:41:48;66666.88;;;11.05;89.45
6835;BME280;3455;42.150;24.734;2022-12-10T01:47:20;66701.03;;;11.06;89.54
6835;BME280;3455;42.150;24.734;2022-12-10T01:49:48;66719.19;;;11.02;88.97
6835;BME280;3455;42.150;24.734;2022-12-10T01:52:14;66691.59;;;10.93;89.70
6835;BME280;3455;42.150;24.734;2022-12-10T01:54:43;66637.41;;;10.61;91.43
6835;BME280;3455;42.150;24.734;2022-12-10T01:57:12;66708.56;;;10.95;89.51
6835;BME280;3455;42.150;24.734;2022-12-10T01:59:40;66707.69;;;11.03;89.63
6835;BME280;3455;42.150;24.734;2022-12-10T02:02:12;66717.69;;;10.98;88.88
6835;BME280;3455;42.150;24.734;2022-12-10T02:04:47;66695.31;;;10.76;90.17
6835;BME280;3455;42.150;24.734;2022-12-10T02:07:24;66692.25;;;11.05;88.14
6835;BME280;3455;42.150;24.734;2022-12-10T02:09:58;66660.16;;;10.97;88.14
6835;BME280;3455;42.150;24.734;2022-12-10T02:12:34;66708.22;;;10.74;89.44
6835;BME280;3455;42.150;24.734;2022-12-10T02:15:06;66693.69;;;10.79;89.72
6835;BME280;3455;42.150;24.734;2022-12-10T02:17:39;66694.88;;;10.80;88.96
6835;BME280;3455;42.150;24.734;2022-12-10T02:20:14;66668.44;;;10.55;90.30
6835;BME280;3455;42.150;24.734;2022-12-10T02:22:46;66674.53;;;10.69;89.79
6835;BME280;3455;42.150;24.734;2022-12-10T02:25:17;66654.78;;;10.40;90.23
6835;BME280;3455;42.150;24.734;2022-12-10T02:27:50;66638.03;;;10.19;91.89
6835;BME280;3455;42.150;24.734;2022-12-10T02:30:21;66662.22;;;10.54;90.34
6835;BME280;3455;42.150;24.734;2022-12-10T02:32:49;66683.63;;;10.90;88.55
6835;BME280;3455;42.150;24.734;2022-12-10T02:35:20;66686.97;;;10.71;89.44
6835;BME280;3455;42.150;24.734;2022-12-10T02:37:51;66719.13;;;10.90;88.18
6835;BME280;3455;42.150;24.734;2022-12-10T02:40:23;66640.22;;;10.52;89.85
6835;BME280;3455;42.150;24.734;2022-12-10T02:42:52;66642.69;;;10.23;91.60
6835;BME280;3455;42.150;24.734;2022-12-10T02:45:22;66676.72;;;10.48;90.55
6835;BME280;3455;42.150;24.734;2022-12-10T02:47:51;66690.03;;;10.78;89.16
6835;BME280;3455;42.150;24.734;2022-12-10T02:50:21;66684.09;;;10.68;89.28
6835;BME280;3455;42.150;24.734;2022-12-10T02:52:48;66680.75;;;10.70;89.12
6835;BME280;3455;42.150;24.734;2022-12-10T02:55:15;66670.19;;;10.38;90.30
6835;BME280;3455;42.150;24.734;2022-12-10T02:57:49;66662.38;;;10.76;89.18
6835;BME280;3455;42.150;24.734;2022-12-10T03:00:21;66693.50;;;10.81;88.41
6835;BME280;3455;42.150;24.734;2022-12-10T03:03:04;66729.56;;;10.64;89.04
6835;BME280;3455;42.150;24.734;2022-12-10T03:05:38;66672.50;;;10.76;88.60
6835;BME280;3455;42.150;24.734;2022-12-10T03:08:11;66681.91;;;10.71;88.25
6835;BME280;3455;42.150;24.734;2022-12-10T03:10:44;66657.59;;;10.67;88.44
6835;BME280;3455;42.150;24.734;2022-12-10T03:13:16;66667.44;;;10.76;88.59
6835;BME280;3455;42.150;24.734;2022-12-10T03:15:47;66692.47;;;10.85;88.37
6835;BME280;3455;42.150;24.734;2022-12-10T03:18:17;66698.94;;;10.84;88.74
6835;BME280;3455;42.150;24.734;2022-12-10T03:20:47;66668.00;;;10.77;88.52
6835;BME280;3455;42.150;24.734;2022-12-10T03:23:16;66662.06;;;10.67;89.61
6835;BME280;3455;42.150;24.734;2022-12-10T03:25:47;66695.81;;;10.83;88.54
6835;BME280;3455;42.150;24.734;2022-12-10T03:28:18;66679.88;;;10.78;89.04
6835;BME280;3455;42.150;24.734;2022-12-10T03:30:47;66665.13;;;10.56;89.64
6835;BME280;3455;42.150;24.734;2022-12-10T03:33:16;66677.28;;;10.67;89.72
6835;BME280;3455;42.150;24.734;2022-12-10T03:35:43;66678.75;;;10.59;89.49
6835;BME280;3455;42.150;24.734;2022-12-10T03:38:10;66714.34;;;10.64;89.03
6835;BME280;3455;42.150;24.734;2022-12-10T03:40:37;66664.63;;;10.49;90.43
6835;BME280;3455;42.150;24.734;2022-12-10T03:43:03;66623.88;;;10.33;91.33
6835;BME280;3455;42.150;24.734;2022-12-10T03:45:30;66629.38;;;10.47;90.89
6835;BME280;3455;42.150;24.734;2022-12-10T03:47:58;66647.59;;;10.54;91.39
6835;BME280;3455;42.150;24.734;2022-12-10T03:50:25;66666.56;;;10.48;91.21
6835;BME280;3455;42.150;24.734;2022-12-10T03:52:51;66684.13;;;10.98;89.36
6835;BME280;3455;42.150;24.734;2022-12-10T03:55:18;66680.91;;;10.57;90.14
6835;BME280;3455;42.150;24.734;2022-12-10T03:57:45;66661.50;;;10.48;91.29
6835;BME280;3455;42.150;24.734;2022-12-10T04:00:12;66656.56;;;10.71;90.53
6835;BME280;3455;42.150;24.734;2022-12-10T04:02:39;66668.09;;;10.70;90.13
6835;BME280;3455;42.150;24.734;2022-12-10T04:05:08;66696.09;;;10.93;89.37
6835;BME280;3455;42.150;24.734;2022-12-10T04:07:35;66697.53;;;10.85;89.75
6835;BME280;3455;42.150;24.734;2022-12-10T04:10:02;66720.28;;;10.91;90.03
6835;BME280;3455;42.150;24.734;2022-12-10T04:12:29;66675.69;;;10.70;90.42
6835;BME280;3455;42.150;24.734;2022-12-10T04:14:56;66633.34;;;10.39;91.66
6835;BME280;3455;42.150;24.734;2022-12-10T04:17:40;66665.63;;;10.81;90.51
6835;BME280;3455;42.150;24.734;2022-12-10T04:20:08;66656.41;;;10.84;90.80
6835;BME280;3455;42.150;24.734;2022-12-10T04:22:55;66707.41;;;10.76;91.04
6835;BME280;3455;42.150;24.734;2022-12-10T04:25:40;66702.31;;;10.94;89.84
6835;BME280;3455;42.150;24.734;2022-12-10T04:28:24;66662.53;;;10.63;91.09
6835;BME280;3455;42.150;24.734;2022-12-10T04:30:51;66693.56;;;10.93;89.68
6835;BME280;3455;42.150;24.734;2022-12-10T04:33:18;66710.72;;;11.10;89.13
6835;BME280;3455;42.150;24.734;2022-12-10T04:35:46;66755.06;;;11.04;89.44
6835;BME280;3455;42.150;24.734;2022-12-10T04:38:13;66715.94;;;10.97;89.97
6835;BME280;3455;42.150;24.734;2022-12-10T04:40:39;66678.72;;;10.95;89.40
6835;BME280;3455;42.150;24.734;2022-12-10T04:43:06;66707.25;;;11.07;88.98
6835;BME280;3455;42.150;24.734;2022-12-10T04:45:34;66741.00;;;11.05;89.07
6835;BME280;3455;42.150;24.734;2022-12-10T04:48:01;66700.75;;;10.97;89.52
6835;BME280;3455;42.150;24.734;2022-12-10T04:50:27;66712.31;;;10.71;89.99
6835;BME280;3455;42.150;24.734;2022-12-10T04:52:55;66675.34;;;10.49;92.19
6835;BME280;3455;42.150;24.734;2022-12-10T04:55:22;66689.59;;;10.82;90.35
6835;BME280;3455;42.150;24.734;2022-12-10T04:57:49;66718.69;;;10.95;89.44
6835;BME280;3455;42.150;24.734;2022-12-10T05:00:16;66681.59;;;10.98;88.86
6835;BME280;3455;42.150;24.734;2022-12-10T05:02:43;66693.63;;;11.04;89.50
6835;BME280;3455;42.150;24.734;2022-12-10T05:05:09;66751.94;;;11.40;87.71
6835;BME280;3455;42.150;24.734;2022-12-10T05:07:36;66772.03;;;11.06;88.92
6835;BME280;3455;42.150;24.734;2022-12-10T05:10:05;66697.34;;;10.69;90.70
6835;BME280;3455;42.150;24.734;2022-12-10T05:12:32;66664.09;;;10.60;91.89
6835;BME280;3455;42.150;24.734;2022-12-10T05:14:58;66727.91;;;11.09;89.32
6835;BME280;3455;42.150;24.734;2022-12-10T05:17:25;66686.94;;;11.07;89.33
6835;BME280;3455;42.150;24.734;2022-12-10T05:19:52;66716.38;;;10.93;89.50
6835;BME280;3455;42.150;24.734;2022-12-10T05:22:18;66702.97;;;10.87;90.43
6835;BME280;3455;42.150;24.734;2022-12-10T05:25:04;66687.13;;;10.94;89.84
6835;BME280;3455;42.150;24.734;2022-12-10T05:27:32;66669.09;;;10.84;90.96
6835;BME280;3455;42.150;24.734;2022-12-10T05:29:59;66693.13;;;10.79;91.44
6835;BME280;3455;42.150;24.734;2022-12-10T05:32:25;66739.69;;;11.00;90.12
6835;BME280;3455;42.150;24.734;2022-12-10T05:34:52;66691.28;;;11.02;89.89
6835;BME280;3455;42.150;24.734;2022-12-10T05:37:19;66703.66;;;10.81;90.83
6835;BME280;3455;42.150;24.734;2022-12-10T05:39:47;66694.94;;;10.91;90.03
6835;BME280;3455;42.150;24.734;2022-12-10T05:42:15;66650.06;;;10.61;90.51
6835;BME280;3455;42.150;24.734;2022-12-10T05:44:42;66683.22;;;10.95;90.35
6835;BME280;3455;42.150;24.734;2022-12-10T05:47:08;66677.41;;;10.89;90.63
6835;BME280;3455;42.150;24.734;2022-12-10T05:49:35;66722.97;;;11.14;89.74
6835;BME280;3455;42.150;24.734;2022-12-10T05:52:02;66735.78;;;11.19;89.77
6835;BME280;3455;42.150;24.734;2022-12-10T05:54:29;66716.22;;;11.06;90.35
6835;BME280;3455;42.150;24.734;2022-12-10T05:56:55;66690.53;;;10.85;91.61
6835;BME280;3455;42.150;24.734;2022-12-10T05:59:24;66711.88;;;11.11;90.28
6835;BME280;3455;42.150;24.734;2022-12-10T06:01:50;66745.22;;;11.14;90.44
6835;BME280;3455;42.150;24.734;2022-12-10T06:04:17;66710.56;;;11.23;89.61
6835;BME280;3455;42.150;24.734;2022-12-10T06:06:44;66751.28;;;11.28;89.53
6835;BME280;3455;42.150;24.734;2022-12-10T06:09:13;66755.03;;;11.40;89.33
6835;BME280;3455;42.150;24.734;2022-12-10T06:11:40;66778.22;;;11.43;88.58
6835;BME280;3455;42.150;24.734;2022-12-10T06:14:08;66777.44;;;11.62;88.16
6835;BME280;3455;42.150;24.734;2022-12-10T06:16:38;66777.47;;;11.74;87.59
6835;BME280;3455;42.150;24.734;2022-12-10T06:19:05;66773.88;;;11.48;88.37
6835;BME280;3455;42.150;24.734;2022-12-10T06:21:32;66762.78;;;11.92;86.67
6835;BME280;3455;42.150;24.734;2022-12-10T06:23:59;66777.75;;;11.83;86.04
6835;BME280;3455;42.150;24.734;2022-12-10T06:26:26;66810.84;;;11.94;86.05
6835;BME280;3455;42.150;24.734;2022-12-10T06:28:53;66774.22;;;11.68;85.94
6835;BME280;3455;42.150;24.734;2022-12-10T06:31:21;66801.97;;;11.82;86.23
6835;BME280;3455;42.150;24.734;2022-12-10T06:33:49;66756.91;;;11.64;86.31
6835;BME280;3455;42.150;24.734;2022-12-10T06:36:17;66729.25;;;10.90;89.12
6835;BME280;3455;42.150;24.734;2022-12-10T06:38:44;66735.34;;;11.05;89.25
6835;BME280;3455;42.150;24.734;2022-12-10T06:41:12;66742.75;;;11.25;88.30
6835;BME280;3455;42.150;24.734;2022-12-10T06:43:39;66727.94;;;11.39;87.92
6835;BME280;3455;42.150;24.734;2022-12-10T06:46:07;66751.81;;;11.64;86.82
6835;BME280;3455;42.150;24.734;2022-12-10T06:48:35;66697.53;;;11.50;87.10
6835;BME280;3455;42.150;24.734;2022-12-10T06:51:03;66764.69;;;11.51;87.35
6835;BME280;3455;42.150;24.734;2022-12-10T06:53:30;66778.28;;;11.72;86.51
6835;BME280;3455;42.150;24.734;2022-12-10T06:55:58;66782.56;;;11.56;87.09
6835;BME280;3455;42.150;24.734;2022-12-10T06:58:26;66752.84;;;11.61;87.21
6835;BME280;3455;42.150;24.734;2022-12-10T07:00:53;66788.34;;;11.79;86.15
6835;BME280;3455;42.150;24.734;2022-12-10T07:03:20;66799.53;;;11.93;85.75
6835;BME280;3455;42.150;24.734;2022-12-10T07:05:46;66783.88;;;11.61;86.10
6835;BME280;3455;42.150;24.734;2022-12-10T07:08:15;66764.91;;;11.31;87.46
6835;BME280;3455;42.150;24.734;2022-12-10T07:10:43;66758.72;;;11.59;87.22
6835;BME280;3455;42.150;24.734;2022-12-10T07:13:09;66796.53;;;11.97;86.08
6835;BME280;3455;42.150;24.734;2022-12-10T07:15:36;66762.88;;;11.85;86.32
6835;BME280;3455;42.150;24.734;2022-12-10T07:18:03;66807.91;;;12.10;85.36
6835;BME280;3455;42.150;24.734;2022-12-10T07:20:30;66837.06;;;12.22;84.19
6835;BME280;3455;42.150;24.734;2022-12-10T07:22:56;66752.47;;;11.58;85.87
6835;BME280;3455;42.150;24.734;2022-12-10T07:25:24;66789.63;;;12.02;85.57
6835;BME280;3455;42.150;24.734;2022-12-10T07:27:51;66785.88;;;11.90;85.94
6835;BME280;3455;42.150;24.734;2022-12-10T07:30:18;66840.31;;;12.27;83.76
6835;BME280;3455;42.150;24.734;2022-12-10T07:32:44;66799.53;;;11.93;84.41
6835;BME280;3455;42.150;24.734;2022-12-10T07:35:11;66815.31;;;12.12;83.77
6835;BME280;3455;42.150;24.734;2022-12-10T07:37:38;66840.63;;;12.48;83.23
6835;BME280;3455;42.150;24.734;2022-12-10T07:40:05;66916.69;;;13.08;80.78
6835;BME280;3455;42.150;24.734;2022-12-10T07:42:33;66842.59;;;12.76;80.36
6835;BME280;3455;42.150;24.734;2022-12-10T07:45:00;66847.59;;;12.54;80.17
6835;BME280;3455;42.150;24.734;2022-12-10T07:47:27;66846.16;;;12.43;81.56
6835;BME280;3455;42.150;24.734;2022-12-10T07:49:53;66870.72;;;12.63;80.55
6835;BME280;3455;42.150;24.734;2022-12-10T07:52:20;66859.19;;;12.64;79.97
6835;BME280;3455;42.150;24.734;2022-12-10T07:54:47;66899.69;;;12.77;80.33
6835;BME280;3455;42.150;24.734;2022-12-10T07:57:14;66912.00;;;12.93;79.75
6835;BME280;3455;42.150;24.734;2022-12-10T07:59:42;66907.94;;;12.89;80.24
6835;BME280;3455;42.150;24.734;2022-12-10T08:02:09;66890.97;;;12.99;79.03
6835;BME280;3455;42.150;24.734;2022-12-10T08:04:35;66951.63;;;13.14;78.11
6835;BME280;3455;42.150;24.734;2022-12-10T08:07:03;66871.91;;;12.64;79.46
6835;BME280;3455;42.150;24.734;2022-12-10T08:09:29;66819.03;;;12.24;81.07
6835;BME280;3455;42.150;24.734;2022-12-10T08:11:56;66838.06;;;12.18;81.93
6835;BME280;3455;42.150;24.734;2022-12-10T08:14:23;66812.53;;;12.14;82.08
6835;BME280;3455;42.150;24.734;2022-12-10T08:16:51;66894.63;;;12.59;80.81
6835;BME280;3455;42.150;24.734;2022-12-10T08:19:18;66915.53;;;12.78;79.93
6835;BME280;3455;42.150;24.734;2022-12-10T08:21:45;66844.41;;;12.42;81.06
6835;BME280;3455;42.150;24.734;2022-12-10T08:24:11;66830.00;;;12.52;81.07
6835;BME280;3455;42.150;24.734;2022-12-10T08:26:38;66800.47;;;11.96;82.64
6835;BME280;3455;42.150;24.734;2022-12-10T08:29:05;66829.22;;;12.24;82.54
6835;BME280;3455;42.150;24.734;2022-12-10T08:31:31;66784.41;;;11.98;83.39
6835;BME280;3455;42.150;24.734;2022-12-10T08:34:00;66842.56;;;12.18;83.10
6835;BME280;3455;42.150;24.734;2022-12-10T08:36:26;66909.16;;;12.54;81.93
6835;BME280;3455;42.150;24.734;2022-12-10T08:38:55;66865.66;;;12.63;80.89
6835;BME280;3455;42.150;24.734;2022-12-10T08:41:22;66809.91;;;11.91;82.63
6835;BME280;3455;42.150;24.734;2022-12-10T08:43:50;66846.03;;;12.39;82.44
6835;BME280;3455;42.150;24.734;2022-12-10T08:46:18;66810.53;;;11.85;83.23
6835;BME280;3455;42.150;24.734;2022-12-10T08:48:44;66861.41;;;12.43;82.64
6835;BME280;3455;42.150;24.734;2022-12-10T08:51:15;66896.56;;;13.06;80.14
6835;BME280;3455;42.150;24.734;2022-12-10T08:53:42;66961.53;;;13.63;78.29
6835;BME280;3455;42.150;24.734;2022-12-10T08:56:09;66936.91;;;13.62;77.03
6835;BME280;3455;42.150;24.734;2022-12-10T08:58:37;67030.88;;;13.93;75.40
6835;BME280;3455;42.150;24.734;2022-12-10T09:01:06;66979.84;;;13.71;76.19
6835;BME280;3455;42.150;24.734;2022-12-10T09:03:34;66988.13;;;13.82;75.82
6835;BME280;3455;42.150;24.734;2022-12-10T09:06:04;67039.78;;;14.28;75.13
6835;BME280;3455;42.150;24.734;2022-12-10T09:08:33;67098.38;;;14.98;72.10
6835;BME280;3455;42.150;24.734;2022-12-10T09:11:06;67170.41;;;15.62;67.86
6835;BME280;3455;42.150;24.734;2022-12-10T09:13:33;67176.91;;;15.72;68.35
6835;BME280;3455;42.150;24.734;2022-12-10T09:16:01;67219.59;;;16.19;66.54
6835;BME280;3455;42.150;24.734;2022-12-10T09:18:33;67294.84;;;16.71;65.15
6835;BME280;3455;42.150;24.734;2022-12-10T09:21:11;67246.94;;;16.65;64.27
6835;BME280;3455;42.150;24.734;2022-12-10T09:23:42;67285.56;;;16.63;63.97
6835;BME280;3455;42.150;24.734;2022-12-10T09:26:10;67285.31;;;16.54;64.01
6835;BME280;3455;42.150;24.734;2022-12-10T09:28:38;67398.78;;;17.77;62.14
6835;BME280;3455;42.150;24.734;2022-12-10T09:31:07;67515.88;;;18.80;55.91
6835;BME280;3455;42.150;24.734;2022-12-10T09:33:36;67630.50;;;19.72;53.95
6835;BME280;3455;42.150;24.734;2022-12-10T09:36:04;67759.69;;;20.94;49.39
6835;BME280;3455;42.150;24.734;2022-12-10T09:38:34;68029.19;;;23.04;44.08
6835;BME280;3455;42.150;24.734;2022-12-10T09:41:05;67864.19;;;21.82;45.83
6835;BME280;3455;42.150;24.734;2022-12-10T09:44:00;67690.28;;;20.49;49.53
6835;BME280;3455;42.150;24.734;2022-12-10T09:46:40;67542.16;;;19.30;51.44
6835;BME280;3455;42.150;24.734;2022-12-10T09:49:17;67512.38;;;18.77;53.40
6835;BME280;3455;42.150;24.734;2022-12-10T09:51:50;67490.88;;;18.96;54.16
6835;BME280;3455;42.150;24.734;2022-12-10T09:54:24;67506.28;;;18.96;54.16
6835;BME280;3455;42.150;24.734;2022-12-10T09:56:54;67454.13;;;18.25;55.52
6835;BME280;3455;42.150;24.734;2022-12-10T09:59:24;67427.66;;;18.16;55.67
6835;BME280;3455;42.150;24.734;2022-12-10T10:02:02;67361.84;;;17.80;56.29
6835;BME280;3455;42.150;24.734;2022-12-10T10:04:29;67348.09;;;17.88;56.61
6835;BME280;3455;42.150;24.734;2022-12-10T10:06:56;67370.00;;;17.87;57.66
6835;BME280;3455;42.150;24.734;2022-12-10T10:09:23;67401.13;;;17.79;56.92
6835;BME280;3455;42.150;24.734;2022-12-10T10:11:50;67316.47;;;17.40;57.94
6835;BME280;3455;42.150;24.734;2022-12-10T10:14:22;67187.19;;;16.17;62.99
6835;BME280;3455;42.150;24.734;2022-12-10T10:16:54;67242.25;;;16.61;62.09
6835;BME280;3455;42.150;24.734;2022-12-10T10:19:26;67270.88;;;16.80;60.90
6835;BME280;3455;42.150;24.734;2022-12-10T10:21:53;67153.91;;;15.61;65.05
6835;BME280;3455;42.150;24.734;2022-12-10T10:24:22;67181.34;;;16.12;64.98
6835;BME280;3455;42.150;24.734;2022-12-10T10:26:51;67218.44;;;16.18;63.29
6835;BME280;3455;42.150;24.734;2022-12-10T10:29:21;67118.03;;;15.45;66.16
6835;BME280;3455;42.150;24.734;2022-12-10T10:32:12;67112.09;;;15.46;67.92
6835;BME280;3455;42.150;24.734;2022-12-10T10:34:40;67178.06;;;15.62;67.15
6835;BME280;3455;42.150;24.734;2022-12-10T10:37:15;67238.91;;;16.51;64.33
6835;BME280;3455;42.150;24.734;2022-12-10T10:39:47;67263.91;;;16.85;63.03
6835;BME280;3455;42.150;24.734;2022-12-10T10:42:25;67268.53;;;17.11;62.50
6835;BME280;3455;42.150;24.734;2022-12-10T10:44:54;67277.16;;;16.69;63.00
6835;BME280;3455;42.150;24.734;2022-12-10T10:47:27;67331.75;;;17.36;62.91
6835;BME280;3455;42.150;24.734;2022-12-10T10:49:54;67418.47;;;18.12;58.67
6835;BME280;3455;42.150;24.734;2022-12-10T10:52:21;67486.59;;;18.72;57.47
6835;BME280;3455;42.150;24.734;2022-12-10T10:54:48;67421.13;;;18.28;56.77
6835;BME280;3455;42.150;24.734;2022-12-10T10:57:18;67341.09;;;17.94;57.58
6835;BME280;3455;42.150;24.734;2022-12-10T10:59:49;67360.91;;;17.88;58.38
6835;BME280;3455;42.150;24.734;2022-12-10T11:02:21;67513.06;;;18.93;54.67
6835;BME280;3455;42.150;24.734;2022-12-10T11:04:52;67483.91;;;18.67;55.29
6835;BME280;3455;42.150;24.734;2022-12-10T11:07:23;67565.16;;;19.37;53.14
6835;BME280;3455;42.150;24.734;2022-12-10T11:09:53;67514.91;;;19.11;54.42
6835;BME280;3455;42.150;24.734;2022-12-10T11:12:34;67586.41;;;19.42;53.48
6835;BME280;3455;42.150;24.734;2022-12-10T11:15:01;67475.75;;;18.72;55.07
6835;BME280;3455;42.150;24.734;2022-12-10T11:17:29;67548.53;;;19.09;53.72
6835;BME280;3455;42.150;24.734;2022-12-10T11:19:58;67442.97;;;18.61;55.34
6835;BME280;3455;42.150;24.734;2022-12-10T11:22:27;67473.94;;;18.43;55.70
6835;BME280;3455;42.150;24.734;2022-12-10T11:24:54;67434.31;;;18.08;56.67
6835;BME280;3455;42.150;24.734;2022-12-10T11:27:32;67397.03;;;17.98;57.13
6835;BME280;3455;42.150;24.734;2022-12-10T11:30:05;67468.06;;;18.60;56.11
6835;BME280;3455;42.150;24.734;2022-12-10T11:32:45;67448.69;;;18.61;55.21
6835;BME280;3455;42.150;24.734;2022-12-10T11:35:19;67461.13;;;18.32;56.78
6835;BME280;3455;42.150;24.734;2022-12-10T11:37:55;67462.03;;;18.46;55.62
6835;BME280;3455;42.150;24.734;2022-12-10T11:40:33;67397.03;;;17.98;57.53
6835;BME280;3455;42.150;24.734;2022-12-10T11:46:03;67428.47;;;18.25;57.13
6835;BME280;3455;42.150;24.734;2022-12-10T11:48:44;67473.78;;;18.61;56.71
6835;BME280;3455;42.150;24.734;2022-12-10T11:51:19;67411.06;;;18.37;56.53
6835;BME280;3455;42.150;24.734;2022-12-10T11:54:06;67346.84;;;17.49;58.46
6835;BME280;3455;42.150;24.734;2022-12-10T11:56:40;67366.75;;;17.71;58.69
6835;BME280;3455;42.150;24.734;2022-12-10T11:59:16;67358.03;;;17.63;59.67
6835;BME280;3455;42.150;24.734;2022-12-10T12:02:07;67433.16;;;17.39;60.17
6835;BME280;3455;42.150;24.734;2022-12-10T12:04:53;67296.47;;;17.13;61.24
6835;BME280;3455;42.150;24.734;2022-12-10T12:07:33;67282.53;;;17.01;61.43
6835;BME280;3455;42.150;24.734;2022-12-10T12:10:29;67269.50;;;16.92;63.67
6835;BME280;3455;42.150;24.734;2022-12-10T12:13:05;67390.06;;;17.69;60.56
6835;BME280;3455;42.150;24.734;2022-12-10T12:15:36;67357.44;;;17.63;60.11
6835;BME280;3455;42.150;24.734;2022-12-10T12:18:11;67379.56;;;17.82;59.00
6835;BME280;3455;42.150;24.734;2022-12-10T12:20:44;67428.25;;;18.16;58.48
6835;BME280;3455;42.150;24.734;2022-12-10T12:23:19;67414.72;;;18.22;58.10
6835;BME280;3455;42.150;24.734;2022-12-10T12:25:51;67420.53;;;18.27;57.81
6835;BME280;3455;42.150;24.734;2022-12-10T12:28:22;67355.31;;;17.81;59.37
6835;BME280;3455;42.150;24.734;2022-12-10T12:30:54;67354.16;;;17.80;59.12
6835;BME280;3455;42.150;24.734;2022-12-10T12:33:28;67290.66;;;17.31;60.74
6835;BME280;3455;42.150;24.734;2022-12-10T12:36:02;67304.97;;;17.23;61.60
6835;BME280;3455;42.150;24.734;2022-12-10T12:38:36;67312.09;;;17.00;62.31
6835;BME280;3455;42.150;24.734;2022-12-10T12:41:13;67325.00;;;17.27;61.58
6835;BME280;3455;42.150;24.734;2022-12-10T12:43:47;67294.38;;;17.09;62.50
6835;BME280;3455;42.150;24.734;2022-12-10T12:46:27;67298.78;;;17.16;61.51
6835;BME280;3455;42.150;24.734;2022-12-10T12:49:00;67289.38;;;16.80;63.13
6835;BME280;3455;42.150;24.734;2022-12-10T12:51:34;67290.88;;;17.18;62.41
6835;BME280;3455;42.150;24.734;2022-12-10T12:54:04;67279.97;;;16.90;62.73
6835;BME280;3455;42.150;24.734;2022-12-10T12:56:48;67315.00;;;17.25;62.46
6835;BME280;3455;42.150;24.734;2022-12-10T12:59:28;67253.41;;;17.09;63.55
6835;BME280;3455;42.150;24.734;2022-12-10T13:02:06;67266.81;;;16.87;63.61
6835;BME280;3455;42.150;24.734;2022-12-10T13:04:38;67264.38;;;16.81;63.79
6835;BME280;3455;42.150;24.734;2022-12-10T13:07:26;67362.44;;;17.69;60.71
6835;BME280;3455;42.150;24.734;2022-12-10T13:10:10;67327.66;;;17.43;61.21
6835;BME280;3455;42.150;24.734;2022-12-10T13:12:48;67297.66;;;17.15;62.52
6835;BME280;3455;42.150;24.734;2022-12-10T13:15:19;67197.63;;;16.26;65.63
6835;BME280;3455;42.150;24.734;2022-12-10T13:18:24;67193.34;;;16.13;67.03
6835;BME280;3455;42.150;24.734;2022-12-10T13:21:28;67266.94;;;16.47;65.77
6835;BME280;3455;42.150;24.734;2022-12-10T13:24:08;67179.63;;;16.10;67.40
6835;BME280;3455;42.150;24.734;2022-12-10T13:26:36;67184.16;;;15.87;68.50
6835;BME280;3455;42.150;24.734;2022-12-10T13:29:21;67163.22;;;16.14;67.54
6835;BME280;3455;42.150;24.734;2022-12-10T13:31:55;67172.97;;;15.73;69.13